sensor_id;sensor_type;location;lat;lon;timestamp;temperature;humidity
13721;DHT22;6932;51.438;5.470;2024-01-10T00:02:00;3.00;73.80
13721;DHT22;6932;51.438;5.470;2024-01-10T00:04:26;3.00;73.90
13721;DHT22;6932;51.438;5.470;2024-01-10T00:06:52;3.00;73.90
13721;DHT22;6932;51.438;5.470;2024-01-10T00:09:18;2.90;73.80
13721;DHT22;6932;51.438;5.470;2024-01-10T00:11:43;2.90;73.90
13721;DHT22;6932;51.438;5.470;2024-01-10T00:14:09;2.90;74.00
13721;DHT22;6932;51.438;5.470;2024-01-10T00:16:36;2.90;73.80
13721;DHT22;6932;51.438;5.470;2024-01-10T00:19:01;2.90;74.10
13721;DHT22;6932;51.438;5.470;2024-01-10T00:21:28;2.90;74.10
13721;DHT22;6932;51.438;5.470;2024-01-10T00:23:53;2.90;74.20
13721;DHT22;6932;51.438;5.470;2024-01-10T00:26:19;2.90;74.20
13721;DHT22;6932;51.438;5.470;2024-01-10T00:28:45;2.80;74.20
13721;DHT22;6932;51.438;5.470;2024-01-10T00:31:12;2.80;75.00
13721;DHT22;6932;51.438;5.470;2024-01-10T00:33:39;2.80;74.40
13721;DHT22;6932;51.438;5.470;2024-01-10T00:36:05;2.80;74.80
13721;DHT22;6932;51.438;5.470;2024-01-10T00:38:32;2.80;74.80
13721;DHT22;6932;51.438;5.470;2024-01-10T00:40:58;2.80;74.50
13721;DHT22;6932;51.438;5.470;2024-01-10T00:43:24;2.70;74.30
13721;DHT22;6932;51.438;5.470;2024-01-10T00:45:50;2.80;74.50
13721;DHT22;6932;51.438;5.470;2024-01-10T00:48:16;2.70;74.40
13721;DHT22;6932;51.438;5.470;2024-01-10T00:50:45;2.70;74.60
13721;DHT22;6932;51.438;5.470;2024-01-10T00:53:11;2.70;74.30
13721;DHT22;6932;51.438;5.470;2024-01-10T00:55:36;2.70;74.60
13721;DHT22;6932;51.438;5.470;2024-01-10T00:58:02;2.70;74.50
13721;DHT22;6932;51.438;5.470;2024-01-10T01:00:28;2.70;74.50
13721;DHT22;6932;51.438;5.470;2024-01-10T01:02:54;2.70;74.50
13721;DHT22;6932;51.438;5.470;2024-01-10T01:05:19;2.70;74.70
13721;DHT22;6932;51.438;5.470;2024-01-10T01:07:45;2.70;74.50
13721;DHT22;6932;51.438;5.470;2024-01-10T01:10:11;2.70;74.70
13721;DHT22;6932;51.438;5.470;2024-01-10T01:12:37;2.60;74.40
13721;DHT22;6932;51.438;5.470;2024-01-10T01:15:03;2.60;74.40
13721;DHT22;6932;51.438;5.470;2024-01-10T01:17:29;2.60;74.20
13721;DHT22;6932;51.438;5.470;2024-01-10T01:19:55;2.60;74.40
13721;DHT22;6932;51.438;5.470;2024-01-10T01:22:20;2.60;74.30
13721;DHT22;6932;51.438;5.470;2024-01-10T01:24:46;2.60;74.30
13721;DHT22;6932;51.438;5.470;2024-01-10T01:27:12;2.50;74.20
13721;DHT22;6932;51.438;5.470;2024-01-10T01:29:37;2.50;74.30
13721;DHT22;6932;51.438;5.470;2024-01-10T01:32:03;2.50;74.40
13721;DHT22;6932;51.438;5.470;2024-01-10T01:34:29;2.50;74.40
13721;DHT22;6932;51.438;5.470;2024-01-10T01:36:55;2.50;74.50
13721;DHT22;6932;51.438;5.470;2024-01-10T01:39:21;2.50;74.50
13721;DHT22;6932;51.438;5.470;2024-01-10T01:41:47;2.40;74.60
13721;DHT22;6932;51.438;5.470;2024-01-10T01:44:13;2.50;74.70
13721;DHT22;6932;51.438;5.470;2024-01-10T01:46:39;2.40;75.10
13721;DHT22;6932;51.438;5.470;2024-01-10T01:49:10;2.40;75.10
13721;DHT22;6932;51.438;5.470;2024-01-10T01:51:37;2.40;74.90
13721;DHT22;6932;51.438;5.470;2024-01-10T01:54:06;2.40;75.00
13721;DHT22;6932;51.438;5.470;2024-01-10T01:56:37;2.40;74.80
13721;DHT22;6932;51.438;5.470;2024-01-10T01:59:04;2.40;74.80
13721;DHT22;6932;51.438;5.470;2024-01-10T02:01:30;2.40;75.10
13721;DHT22;6932;51.438;5.470;2024-01-10T02:03:56;2.40;75.10
13721;DHT22;6932;51.438;5.470;2024-01-10T02:06:22;2.40;75.20
13721;DHT22;6932;51.438;5.470;2024-01-10T02:08:48;2.40;75.10
13721;DHT22;6932;51.438;5.470;2024-01-10T02:11:15;2.30;75.20
13721;DHT22;6932;51.438;5.470;2024-01-10T02:13:41;2.30;75.10
13721;DHT22;6932;51.438;5.470;2024-01-10T02:16:07;2.30;75.30
13721;DHT22;6932;51.438;5.470;2024-01-10T02:18:34;2.30;75.20
13721;DHT22;6932;51.438;5.470;2024-01-10T02:21:00;2.30;75.10
13721;DHT22;6932;51.438;5.470;2024-01-10T02:23:26;2.30;75.30
13721;DHT22;6932;51.438;5.470;2024-01-10T02:25:52;2.30;75.40
13721;DHT22;6932;51.438;5.470;2024-01-10T02:28:18;2.30;75.40
13721;DHT22;6932;51.438;5.470;2024-01-10T02:30:44;2.30;75.50
13721;DHT22;6932;51.438;5.470;2024-01-10T02:33:09;2.30;75.40
13721;DHT22;6932;51.438;5.470;2024-01-10T02:35:35;2.30;75.40
13721;DHT22;6932;51.438;5.470;2024-01-10T02:38:01;2.30;75.60
13721;DHT22;6932;51.438;5.470;2024-01-10T02:40:28;2.30;75.40
13721;DHT22;6932;51.438;5.470;2024-01-10T02:42:54;2.30;75.40
13721;DHT22;6932;51.438;5.470;2024-01-10T02:45:19;2.30;75.40
13721;DHT22;6932;51.438;5.470;2024-01-10T02:47:45;2.30;75.40
13721;DHT22;6932;51.438;5.470;2024-01-10T02:50:11;2.30;75.50
13721;DHT22;6932;51.438;5.470;2024-01-10T02:52:37;2.30;75.40
13721;DHT22;6932;51.438;5.470;2024-01-10T02:55:03;2.30;75.60
13721;DHT22;6932;51.438;5.470;2024-01-10T02:57:29;2.30;75.50
13721;DHT22;6932;51.438;5.470;2024-01-10T02:59:55;2.40;75.70
13721;DHT22;6932;51.438;5.470;2024-01-10T03:02:20;2.30;75.90
13721;DHT22;6932;51.438;5.470;2024-01-10T03:04:48;2.30;76.00
13721;DHT22;6932;51.438;5.470;2024-01-10T03:07:14;2.30;76.00
13721;DHT22;6932;51.438;5.470;2024-01-10T03:09:40;2.40;76.00
13721;DHT22;6932;51.438;5.470;2024-01-10T03:12:05;2.40;76.00
13721;DHT22;6932;51.438;5.470;2024-01-10T03:14:33;2.30;76.00
13721;DHT22;6932;51.438;5.470;2024-01-10T03:17:00;2.40;76.30
13721;DHT22;6932;51.438;5.470;2024-01-10T03:19:25;2.40;76.00
13721;DHT22;6932;51.438;5.470;2024-01-10T03:21:51;2.40;76.00
13721;DHT22;6932;51.438;5.470;2024-01-10T03:24:17;2.40;76.10
13721;DHT22;6932;51.438;5.470;2024-01-10T03:26:43;2.30;76.20
13721;DHT22;6932;51.438;5.470;2024-01-10T03:29:08;2.40;76.30
13721;DHT22;6932;51.438;5.470;2024-01-10T03:31:34;2.40;76.50
13721;DHT22;6932;51.438;5.470;2024-01-10T03:34:00;2.40;76.40
13721;DHT22;6932;51.438;5.470;2024-01-10T03:36:25;2.30;76.40
13721;DHT22;6932;51.438;5.470;2024-01-10T03:38:51;2.40;76.50
13721;DHT22;6932;51.438;5.470;2024-01-10T03:41:19;2.40;76.60
13721;DHT22;6932;51.438;5.470;2024-01-10T03:43:46;2.40;76.40
13721;DHT22;6932;51.438;5.470;2024-01-10T03:46:12;2.40;76.40
13721;DHT22;6932;51.438;5.470;2024-01-10T03:48:39;2.40;76.60
13721;DHT22;6932;51.438;5.470;2024-01-10T03:51:14;2.40;76.60
13721;DHT22;6932;51.438;5.470;2024-01-10T03:53:41;2.40;76.70
13721;DHT22;6932;51.438;5.470;2024-01-10T03:56:07;2.40;77.20
13721;DHT22;6932;51.438;5.470;2024-01-10T03:58:33;2.40;76.70
13721;DHT22;6932;51.438;5.470;2024-01-10T04:00:59;2.40;76.40
13721;DHT22;6932;51.438;5.470;2024-01-10T04:03:24;2.40;76.50
13721;DHT22;6932;51.438;5.470;2024-01-10T04:05:50;2.40;76.60
13721;DHT22;6932;51.438;5.470;2024-01-10T04:08:16;2.40;76.50
13721;DHT22;6932;51.438;5.470;2024-01-10T04:10:41;2.40;77.30
13721;DHT22;6932;51.438;5.470;2024-01-10T04:13:07;2.40;76.80
13721;DHT22;6932;51.438;5.470;2024-01-10T04:15:33;2.40;76.50
13721;DHT22;6932;51.438;5.470;2024-01-10T04:18:00;2.40;76.60
13721;DHT22;6932;51.438;5.470;2024-01-10T04:20:25;2.40;76.40
13721;DHT22;6932;51.438;5.470;2024-01-10T04:22:51;2.40;76.70
13721;DHT22;6932;51.438;5.470;2024-01-10T04:25:17;2.40;76.60
13721;DHT22;6932;51.438;5.470;2024-01-10T04:27:42;2.40;76.50
13721;DHT22;6932;51.438;5.470;2024-01-10T04:30:08;2.40;76.60
13721;DHT22;6932;51.438;5.470;2024-01-10T04:32:34;2.40;77.00
13721;DHT22;6932;51.438;5.470;2024-01-10T04:35:00;2.40;77.00
13721;DHT22;6932;51.438;5.470;2024-01-10T04:37:26;2.50;76.70
13721;DHT22;6932;51.438;5.470;2024-01-10T04:39:52;2.40;76.70
13721;DHT22;6932;51.438;5.470;2024-01-10T04:42:17;2.40;77.00
13721;DHT22;6932;51.438;5.470;2024-01-10T04:44:43;2.40;77.00
13721;DHT22;6932;51.438;5.470;2024-01-10T04:47:09;2.40;77.00
13721;DHT22;6932;51.438;5.470;2024-01-10T04:49:35;2.40;77.20
13721;DHT22;6932;51.438;5.470;2024-01-10T04:52:01;2.40;77.20
13721;DHT22;6932;51.438;5.470;2024-01-10T04:54:27;2.50;77.00
13721;DHT22;6932;51.438;5.470;2024-01-10T04:56:52;2.40;77.20
13721;DHT22;6932;51.438;5.470;2024-01-10T04:59:18;2.40;77.00
13721;DHT22;6932;51.438;5.470;2024-01-10T05:01:44;2.40;77.20
13721;DHT22;6932;51.438;5.470;2024-01-10T05:04:10;2.50;77.30
13721;DHT22;6932;51.438;5.470;2024-01-10T05:06:35;2.40;77.10
13721;DHT22;6932;51.438;5.470;2024-01-10T05:09:01;2.50;77.10
13721;DHT22;6932;51.438;5.470;2024-01-10T05:11:27;2.40;77.20
13721;DHT22;6932;51.438;5.470;2024-01-10T05:13:53;2.50;77.20
13721;DHT22;6932;51.438;5.470;2024-01-10T05:16:19;2.50;77.00
13721;DHT22;6932;51.438;5.470;2024-01-10T05:18:45;2.50;76.80
13721;DHT22;6932;51.438;5.470;2024-01-10T05:21:11;2.50;77.20
13721;DHT22;6932;51.438;5.470;2024-01-10T05:23:37;2.50;77.40
13721;DHT22;6932;51.438;5.470;2024-01-10T05:26:05;2.50;77.30
13721;DHT22;6932;51.438;5.470;2024-01-10T05:28:31;2.50;77.00
13721;DHT22;6932;51.438;5.470;2024-01-10T05:30:58;2.50;77.30
13721;DHT22;6932;51.438;5.470;2024-01-10T05:33:24;2.50;77.30
13721;DHT22;6932;51.438;5.470;2024-01-10T05:35:50;2.50;77.50
13721;DHT22;6932;51.438;5.470;2024-01-10T05:38:15;2.50;77.30
13721;DHT22;6932;51.438;5.470;2024-01-10T05:40:41;2.50;77.20
13721;DHT22;6932;51.438;5.470;2024-01-10T05:43:07;2.50;77.20
13721;DHT22;6932;51.438;5.470;2024-01-10T05:45:33;2.50;77.20
13721;DHT22;6932;51.438;5.470;2024-01-10T05:47:59;2.50;77.50
13721;DHT22;6932;51.438;5.470;2024-01-10T05:50:25;2.50;77.30
13721;DHT22;6932;51.438;5.470;2024-01-10T05:52:50;2.50;76.80
13721;DHT22;6932;51.438;5.470;2024-01-10T05:55:16;2.50;77.70
13721;DHT22;6932;51.438;5.470;2024-01-10T05:57:42;2.50;77.20
13721;DHT22;6932;51.438;5.470;2024-01-10T06:00:08;2.40;77.20
13721;DHT22;6932;51.438;5.470;2024-01-10T06:02:44;2.50;77.00
13721;DHT22;6932;51.438;5.470;2024-01-10T06:05:10;2.50;76.90
13721;DHT22;6932;51.438;5.470;2024-01-10T06:07:37;2.50;77.20
13721;DHT22;6932;51.438;5.470;2024-01-10T06:10:04;2.60;77.30
13721;DHT22;6932;51.438;5.470;2024-01-10T06:12:31;2.50;77.20
13721;DHT22;6932;51.438;5.470;2024-01-10T06:14:57;2.50;77.20
13721;DHT22;6932;51.438;5.470;2024-01-10T06:17:23;2.50;77.40
13721;DHT22;6932;51.438;5.470;2024-01-10T06:19:49;2.50;77.60
13721;DHT22;6932;51.438;5.470;2024-01-10T06:22:15;2.50;77.60
13721;DHT22;6932;51.438;5.470;2024-01-10T06:24:42;2.50;77.50
13721;DHT22;6932;51.438;5.470;2024-01-10T06:27:08;2.50;77.60
13721;DHT22;6932;51.438;5.470;2024-01-10T06:29:35;2.50;77.90
13721;DHT22;6932;51.438;5.470;2024-01-10T06:32:05;2.50;78.00
13721;DHT22;6932;51.438;5.470;2024-01-10T06:34:32;2.50;77.80
13721;DHT22;6932;51.438;5.470;2024-01-10T06:36:59;2.50;77.80
13721;DHT22;6932;51.438;5.470;2024-01-10T06:39:25;2.60;78.10
13721;DHT22;6932;51.438;5.470;2024-01-10T06:41:51;2.60;78.20
13721;DHT22;6932;51.438;5.470;2024-01-10T06:44:16;2.60;78.20
13721;DHT22;6932;51.438;5.470;2024-01-10T06:46:45;2.60;78.50
13721;DHT22;6932;51.438;5.470;2024-01-10T06:49:11;2.60;78.30
13721;DHT22;6932;51.438;5.470;2024-01-10T06:51:37;2.60;78.20
13721;DHT22;6932;51.438;5.470;2024-01-10T06:54:04;2.60;78.50
13721;DHT22;6932;51.438;5.470;2024-01-10T06:56:31;2.60;78.40
13721;DHT22;6932;51.438;5.470;2024-01-10T06:58:58;2.50;78.30
13721;DHT22;6932;51.438;5.470;2024-01-10T07:01:24;2.50;78.40
13721;DHT22;6932;51.438;5.470;2024-01-10T07:03:51;2.50;78.30
13721;DHT22;6932;51.438;5.470;2024-01-10T07:06:18;2.60;78.10
13721;DHT22;6932;51.438;5.470;2024-01-10T07:08:44;2.60;78.30
13721;DHT22;6932;51.438;5.470;2024-01-10T07:11:11;2.60;78.60
13721;DHT22;6932;51.438;5.470;2024-01-10T07:13:37;2.60;78.30
13721;DHT22;6932;51.438;5.470;2024-01-10T07:16:03;2.60;78.10
13721;DHT22;6932;51.438;5.470;2024-01-10T07:18:29;2.60;78.30
13721;DHT22;6932;51.438;5.470;2024-01-10T07:20:56;2.50;78.40
13721;DHT22;6932;51.438;5.470;2024-01-10T07:23:22;2.60;78.50
13721;DHT22;6932;51.438;5.470;2024-01-10T07:25:51;2.60;78.30
13721;DHT22;6932;51.438;5.470;2024-01-10T07:28:17;2.50;78.20
13721;DHT22;6932;51.438;5.470;2024-01-10T07:30:43;2.50;78.40
13721;DHT22;6932;51.438;5.470;2024-01-10T07:33:10;2.50;78.60
13721;DHT22;6932;51.438;5.470;2024-01-10T07:35:37;2.60;78.50
13721;DHT22;6932;51.438;5.470;2024-01-10T07:38:04;2.60;78.10
13721;DHT22;6932;51.438;5.470;2024-01-10T07:40:34;2.50;78.20
13721;DHT22;6932;51.438;5.470;2024-01-10T07:43:01;2.50;78.60
13721;DHT22;6932;51.438;5.470;2024-01-10T07:45:27;2.50;78.50
13721;DHT22;6932;51.438;5.470;2024-01-10T07:47:53;2.50;78.30
13721;DHT22;6932;51.438;5.470;2024-01-10T07:50:19;2.50;78.30
13721;DHT22;6932;51.438;5.470;2024-01-10T07:52:45;2.50;78.60
13721;DHT22;6932;51.438;5.470;2024-01-10T07:55:12;2.50;78.50
13721;DHT22;6932;51.438;5.470;2024-01-10T07:57:38;2.50;78.30
13721;DHT22;6932;51.438;5.470;2024-01-10T08:00:05;2.50;78.50
13721;DHT22;6932;51.438;5.470;2024-01-10T08:02:38;2.50;78.70
13721;DHT22;6932;51.438;5.470;2024-01-10T08:05:06;2.60;78.80
13721;DHT22;6932;51.438;5.470;2024-01-10T08:07:38;2.60;78.20
13721;DHT22;6932;51.438;5.470;2024-01-10T08:10:09;2.50;78.00
13721;DHT22;6932;51.438;5.470;2024-01-10T08:12:38;2.50;78.50
13721;DHT22;6932;51.438;5.470;2024-01-10T08:15:06;2.50;78.20
13721;DHT22;6932;51.438;5.470;2024-01-10T08:17:33;2.40;78.20
13721;DHT22;6932;51.438;5.470;2024-01-10T08:19:59;2.40;78.40
13721;DHT22;6932;51.438;5.470;2024-01-10T08:22:29;2.40;78.30
13721;DHT22;6932;51.438;5.470;2024-01-10T08:24:55;2.40;78.40
13721;DHT22;6932;51.438;5.470;2024-01-10T08:27:21;2.40;78.20
13721;DHT22;6932;51.438;5.470;2024-01-10T08:29:47;2.40;78.30
13721;DHT22;6932;51.438;5.470;2024-01-10T08:32:12;2.40;78.30
13721;DHT22;6932;51.438;5.470;2024-01-10T08:34:38;2.40;78.20
13721;DHT22;6932;51.438;5.470;2024-01-10T08:37:04;2.50;78.20
13721;DHT22;6932;51.438;5.470;2024-01-10T08:39:29;2.50;78.10
13721;DHT22;6932;51.438;5.470;2024-01-10T08:41:59;2.50;78.10
13721;DHT22;6932;51.438;5.470;2024-01-10T08:44:25;2.60;77.90
13721;DHT22;6932;51.438;5.470;2024-01-10T08:46:50;2.60;77.80
13721;DHT22;6932;51.438;5.470;2024-01-10T08:49:17;2.70;77.90
13721;DHT22;6932;51.438;5.470;2024-01-10T08:51:43;2.70;77.70
13721;DHT22;6932;51.438;5.470;2024-01-10T08:54:10;2.80;77.50
13721;DHT22;6932;51.438;5.470;2024-01-10T08:56:38;2.80;77.50
13721;DHT22;6932;51.438;5.470;2024-01-10T08:59:03;2.90;77.50
13721;DHT22;6932;51.438;5.470;2024-01-10T09:01:29;2.90;77.00
13721;DHT22;6932;51.438;5.470;2024-01-10T09:03:55;3.00;77.10
13721;DHT22;6932;51.438;5.470;2024-01-10T09:06:20;3.00;77.10
13721;DHT22;6932;51.438;5.470;2024-01-10T09:08:46;3.10;76.80
13721;DHT22;6932;51.438;5.470;2024-01-10T09:11:12;3.10;76.90
13721;DHT22;6932;51.438;5.470;2024-01-10T09:13:38;3.20;76.80
13721;DHT22;6932;51.438;5.470;2024-01-10T09:16:05;3.20;76.60
13721;DHT22;6932;51.438;5.470;2024-01-10T09:18:31;3.30;76.50
13721;DHT22;6932;51.438;5.470;2024-01-10T09:20:57;3.30;76.70
13721;DHT22;6932;51.438;5.470;2024-01-10T09:23:22;3.30;76.20
13721;DHT22;6932;51.438;5.470;2024-01-10T09:25:48;3.40;76.30
13721;DHT22;6932;51.438;5.470;2024-01-10T09:28:14;3.40;76.60
13721;DHT22;6932;51.438;5.470;2024-01-10T09:30:40;3.50;75.80
13721;DHT22;6932;51.438;5.470;2024-01-10T09:33:05;3.60;75.60
13721;DHT22;6932;51.438;5.470;2024-01-10T09:35:31;3.60;75.50
13721;DHT22;6932;51.438;5.470;2024-01-10T09:37:57;3.70;75.40
13721;DHT22;6932;51.438;5.470;2024-01-10T09:40:23;3.70;75.30
13721;DHT22;6932;51.438;5.470;2024-01-10T09:42:53;3.70;75.30
13721;DHT22;6932;51.438;5.470;2024-01-10T09:45:22;3.80;75.50
13721;DHT22;6932;51.438;5.470;2024-01-10T09:47:52;3.80;75.20
13721;DHT22;6932;51.438;5.470;2024-01-10T09:50:20;3.80;75.30
13721;DHT22;6932;51.438;5.470;2024-01-10T09:53:01;3.80;75.90
13721;DHT22;6932;51.438;5.470;2024-01-10T09:55:34;3.80;75.70
13721;DHT22;6932;51.438;5.470;2024-01-10T09:58:05;3.90;76.60
13721;DHT22;6932;51.438;5.470;2024-01-10T10:00:33;3.90;76.30
13721;DHT22;6932;51.438;5.470;2024-01-10T10:03:02;4.00;75.50
13721;DHT22;6932;51.438;5.470;2024-01-10T10:05:30;4.10;75.50
13721;DHT22;6932;51.438;5.470;2024-01-10T10:07:59;4.10;76.40
13721;DHT22;6932;51.438;5.470;2024-01-10T10:10:25;4.20;75.20
13721;DHT22;6932;51.438;5.470;2024-01-10T10:12:52;4.20;74.50
13721;DHT22;6932;51.438;5.470;2024-01-10T10:15:21;4.30;74.40
13721;DHT22;6932;51.438;5.470;2024-01-10T10:17:49;4.30;74.40
13721;DHT22;6932;51.438;5.470;2024-01-10T10:20:26;4.40;75.40
13721;DHT22;6932;51.438;5.470;2024-01-10T10:23:04;4.40;75.10
13721;DHT22;6932;51.438;5.470;2024-01-10T10:25:43;4.50;75.10
13721;DHT22;6932;51.438;5.470;2024-01-10T10:28:10;4.60;74.90
13721;DHT22;6932;51.438;5.470;2024-01-10T10:30:36;4.60;74.20
13721;DHT22;6932;51.438;5.470;2024-01-10T10:33:03;4.70;74.30
13721;DHT22;6932;51.438;5.470;2024-01-10T10:35:29;4.80;73.40
13721;DHT22;6932;51.438;5.470;2024-01-10T10:37:55;4.80;74.00
13721;DHT22;6932;51.438;5.470;2024-01-10T10:40:21;4.80;73.20
13721;DHT22;6932;51.438;5.470;2024-01-10T10:42:49;4.80;73.30
13721;DHT22;6932;51.438;5.470;2024-01-10T10:45:24;4.90;73.30
13721;DHT22;6932;51.438;5.470;2024-01-10T10:47:57;4.90;73.00
13721;DHT22;6932;51.438;5.470;2024-01-10T10:50:28;4.90;73.40
13721;DHT22;6932;51.438;5.470;2024-01-10T10:52:59;5.00;72.80
13721;DHT22;6932;51.438;5.470;2024-01-10T10:55:27;5.00;73.10
13721;DHT22;6932;51.438;5.470;2024-01-10T10:57:55;5.00;72.70
13721;DHT22;6932;51.438;5.470;2024-01-10T11:00:22;5.10;72.50
13721;DHT22;6932;51.438;5.470;2024-01-10T11:02:55;5.10;72.30
13721;DHT22;6932;51.438;5.470;2024-01-10T11:05:23;5.10;71.90
13721;DHT22;6932;51.438;5.470;2024-01-10T11:07:51;5.20;72.60
13721;DHT22;6932;51.438;5.470;2024-01-10T11:10:28;5.20;72.30
13721;DHT22;6932;51.438;5.470;2024-01-10T11:21:29;5.40;71.80
13721;DHT22;6932;51.438;5.470;2024-01-10T11:24:15;5.40;71.80
13721;DHT22;6932;51.438;5.470;2024-01-10T11:26:42;5.40;71.70
13721;DHT22;6932;51.438;5.470;2024-01-10T11:29:10;5.50;71.60
13721;DHT22;6932;51.438;5.470;2024-01-10T11:31:38;5.60;71.60
13721;DHT22;6932;51.438;5.470;2024-01-10T11:34:04;5.60;71.30
13721;DHT22;6932;51.438;5.470;2024-01-10T11:36:30;5.60;71.90
13721;DHT22;6932;51.438;5.470;2024-01-10T11:39:03;5.70;71.00
13721;DHT22;6932;51.438;5.470;2024-01-10T11:41:36;5.70;71.00
13721;DHT22;6932;51.438;5.470;2024-01-10T11:46:41;5.70;71.50
13721;DHT22;6932;51.438;5.470;2024-01-10T11:49:09;5.80;71.50
13721;DHT22;6932;51.438;5.470;2024-01-10T11:51:35;5.80;71.90
13721;DHT22;6932;51.438;5.470;2024-01-10T11:54:04;5.80;71.40
13721;DHT22;6932;51.438;5.470;2024-01-10T11:56:41;5.80;71.50
13721;DHT22;6932;51.438;5.470;2024-01-10T11:59:12;5.80;71.00
13721;DHT22;6932;51.438;5.470;2024-01-10T12:01:42;5.80;71.00
13721;DHT22;6932;51.438;5.470;2024-01-10T12:04:08;5.80;71.50
13721;DHT22;6932;51.438;5.470;2024-01-10T12:06:37;5.80;71.00
13721;DHT22;6932;51.438;5.470;2024-01-10T12:09:04;5.90;71.30
13721;DHT22;6932;51.438;5.470;2024-01-10T12:11:39;5.90;71.40
13721;DHT22;6932;51.438;5.470;2024-01-10T12:14:06;5.90;71.40
13721;DHT22;6932;51.438;5.470;2024-01-10T12:16:35;6.00;72.00
13721;DHT22;6932;51.438;5.470;2024-01-10T12:19:01;6.00;71.30
13721;DHT22;6932;51.438;5.470;2024-01-10T12:21:27;6.10;71.10
13721;DHT22;6932;51.438;5.470;2024-01-10T12:23:53;6.10;70.30
13721;DHT22;6932;51.438;5.470;2024-01-10T12:26:19;6.20;70.80
13721;DHT22;6932;51.438;5.470;2024-01-10T12:28:58;6.20;70.90
13721;DHT22;6932;51.438;5.470;2024-01-10T12:31:28;6.20;70.70
13721;DHT22;6932;51.438;5.470;2024-01-10T12:34:00;6.20;70.20
13721;DHT22;6932;51.438;5.470;2024-01-10T12:36:26;6.20;70.40
13721;DHT22;6932;51.438;5.470;2024-01-10T12:38:52;6.10;70.60
13721;DHT22;6932;51.438;5.470;2024-01-10T12:41:18;6.20;70.50
13721;DHT22;6932;51.438;5.470;2024-01-10T12:43:54;6.10;70.80
13721;DHT22;6932;51.438;5.470;2024-01-10T12:46:21;6.10;70.70
13721;DHT22;6932;51.438;5.470;2024-01-10T12:49:02;6.10;70.80
13721;DHT22;6932;51.438;5.470;2024-01-10T12:51:33;6.10;70.70
13721;DHT22;6932;51.438;5.470;2024-01-10T12:54:02;6.10;70.40
13721;DHT22;6932;51.438;5.470;2024-01-10T12:56:29;6.00;70.70
13721;DHT22;6932;51.438;5.470;2024-01-10T12:58:56;6.00;70.70
13721;DHT22;6932;51.438;5.470;2024-01-10T13:01:24;6.00;70.70
13721;DHT22;6932;51.438;5.470;2024-01-10T13:03:51;6.00;71.00
13721;DHT22;6932;51.438;5.470;2024-01-10T13:06:17;6.00;71.30
13721;DHT22;6932;51.438;5.470;2024-01-10T13:08:45;6.00;71.40
13721;DHT22;6932;51.438;5.470;2024-01-10T13:11:12;6.00;71.10
13721;DHT22;6932;51.438;5.470;2024-01-10T13:13:39;6.00;71.40
13721;DHT22;6932;51.438;5.470;2024-01-10T13:16:06;6.00;71.20
13721;DHT22;6932;51.438;5.470;2024-01-10T13:18:32;6.00;71.40
13721;DHT22;6932;51.438;5.470;2024-01-10T13:20:59;6.00;71.40
13721;DHT22;6932;51.438;5.470;2024-01-10T13:23:24;6.00;71.50
13721;DHT22;6932;51.438;5.470;2024-01-10T13:25:51;6.00;71.30
13721;DHT22;6932;51.438;5.470;2024-01-10T13:28:20;6.00;71.50
13721;DHT22;6932;51.438;5.470;2024-01-10T13:30:45;6.00;71.30
13721;DHT22;6932;51.438;5.470;2024-01-10T13:33:11;6.00;71.10
13721;DHT22;6932;51.438;5.470;2024-01-10T13:35:38;6.00;71.30
13721;DHT22;6932;51.438;5.470;2024-01-10T13:38:04;6.00;71.40
13721;DHT22;6932;51.438;5.470;2024-01-10T13:40:31;6.00;71.40
13721;DHT22;6932;51.438;5.470;2024-01-10T13:42:59;6.00;70.90
13721;DHT22;6932;51.438;5.470;2024-01-10T13:45:29;6.00;71.30
13721;DHT22;6932;51.438;5.470;2024-01-10T13:47:55;6.00;71.10
13721;DHT22;6932;51.438;5.470;2024-01-10T13:50:21;6.00;71.10
13721;DHT22;6932;51.438;5.470;2024-01-10T13:52:47;6.00;70.80
13721;DHT22;6932;51.438;5.470;2024-01-10T13:55:13;6.00;70.60
13721;DHT22;6932;51.438;5.470;2024-01-10T13:57:38;5.90;70.40
13721;DHT22;6932;51.438;5.470;2024-01-10T14:00:06;6.00;70.90
13721;DHT22;6932;51.438;5.470;2024-01-10T14:02:40;5.90;70.70
13721;DHT22;6932;51.438;5.470;2024-01-10T14:05:09;5.90;70.80
13721;DHT22;6932;51.438;5.470;2024-01-10T14:07:35;5.90;71.30
13721;DHT22;6932;51.438;5.470;2024-01-10T14:10:01;5.90;71.30
13721;DHT22;6932;51.438;5.470;2024-01-10T14:12:28;6.00;71.00
13721;DHT22;6932;51.438;5.470;2024-01-10T14:14:54;5.90;71.50
13721;DHT22;6932;51.438;5.470;2024-01-10T14:17:21;6.00;70.90
13721;DHT22;6932;51.438;5.470;2024-01-10T14:19:47;5.90;70.80
13721;DHT22;6932;51.438;5.470;2024-01-10T14:22:15;5.90;70.90
13721;DHT22;6932;51.438;5.470;2024-01-10T14:24:43;5.90;71.10
13721;DHT22;6932;51.438;5.470;2024-01-10T14:27:09;6.00;71.00
13721;DHT22;6932;51.438;5.470;2024-01-10T14:29:35;5.90;70.80
13721;DHT22;6932;51.438;5.470;2024-01-10T14:32:01;5.90;70.80
13721;DHT22;6932;51.438;5.470;2024-01-10T14:34:27;6.00;70.80
13721;DHT22;6932;51.438;5.470;2024-01-10T14:36:53;6.00;71.00
13721;DHT22;6932;51.438;5.470;2024-01-10T14:39:18;5.90;70.80
13721;DHT22;6932;51.438;5.470;2024-01-10T14:41:44;5.90;71.20
13721;DHT22;6932;51.438;5.470;2024-01-10T14:44:10;6.00;71.10
13721;DHT22;6932;51.438;5.470;2024-01-10T14:46:36;5.90;71.20
13721;DHT22;6932;51.438;5.470;2024-01-10T14:49:02;5.90;71.10
13721;DHT22;6932;51.438;5.470;2024-01-10T14:51:27;5.90;71.10
13721;DHT22;6932;51.438;5.470;2024-01-10T14:53:53;5.90;71.30
13721;DHT22;6932;51.438;5.470;2024-01-10T14:56:19;5.90;71.50
13721;DHT22;6932;51.438;5.470;2024-01-10T14:58:45;5.90;71.40
13721;DHT22;6932;51.438;5.470;2024-01-10T15:01:10;5.90;71.60
13721;DHT22;6932;51.438;5.470;2024-01-10T15:03:36;5.90;71.50
13721;DHT22;6932;51.438;5.470;2024-01-10T15:06:06;5.90;71.50
13721;DHT22;6932;51.438;5.470;2024-01-10T15:08:32;5.90;71.60
13721;DHT22;6932;51.438;5.470;2024-01-10T15:11:02;5.90;71.70
13721;DHT22;6932;51.438;5.470;2024-01-10T15:13:28;5.90;71.80
13721;DHT22;6932;51.438;5.470;2024-01-10T15:15:54;5.90;72.00
13721;DHT22;6932;51.438;5.470;2024-01-10T15:18:19;5.90;71.70
13721;DHT22;6932;51.438;5.470;2024-01-10T15:20:45;5.90;71.70
13721;DHT22;6932;51.438;5.470;2024-01-10T15:23:12;5.80;72.00
13721;DHT22;6932;51.438;5.470;2024-01-10T15:25:37;5.80;72.10
13721;DHT22;6932;51.438;5.470;2024-01-10T15:28:03;5.80;72.00
13721;DHT22;6932;51.438;5.470;2024-01-10T15:30:30;5.80;71.90
13721;DHT22;6932;51.438;5.470;2024-01-10T15:32:58;5.80;72.10
13721;DHT22;6932;51.438;5.470;2024-01-10T15:35:24;5.80;72.20
13721;DHT22;6932;51.438;5.470;2024-01-10T15:37:51;5.80;72.20
13721;DHT22;6932;51.438;5.470;2024-01-10T15:40:18;5.80;72.40
13721;DHT22;6932;51.438;5.470;2024-01-10T15:42:44;5.80;72.30
13721;DHT22;6932;51.438;5.470;2024-01-10T15:45:13;5.80;72.40
13721;DHT22;6932;51.438;5.470;2024-01-10T15:47:40;5.80;72.50
13721;DHT22;6932;51.438;5.470;2024-01-10T15:50:06;5.80;72.60
13721;DHT22;6932;51.438;5.470;2024-01-10T15:52:36;5.80;72.50
13721;DHT22;6932;51.438;5.470;2024-01-10T15:55:03;5.80;72.80
13721;DHT22;6932;51.438;5.470;2024-01-10T15:57:30;5.80;72.90
13721;DHT22;6932;51.438;5.470;2024-01-10T15:59:55;5.80;73.00
13721;DHT22;6932;51.438;5.470;2024-01-10T16:02:24;5.80;73.00
13721;DHT22;6932;51.438;5.470;2024-01-10T16:04:50;5.80;73.00
13721;DHT22;6932;51.438;5.470;2024-01-10T16:07:16;5.80;72.80
13721;DHT22;6932;51.438;5.470;2024-01-10T16:09:41;5.80;73.00
13721;DHT22;6932;51.438;5.470;2024-01-10T16:12:07;5.70;73.10